Time;durP1;ratioP1;P1;durP2;ratioP2;P2;SDS_P1;SDS_P2;PMS_P1;PMS_P2;Temp;Humidity;BMP_temperature;BMP_pressure;BME280_temperature;BME280_humidity;BME280_pressure;Samples;Min_cycle;Max_cycle;Signal;HPM_P1;HPM_P2
2023/08/27 00:01:49;;;;;;;16.95;13.82;;;;;;;-145.63;60.54;39110.28;5026438;28;20093;-68
2023/08/27 00:04:15;;;;;;;17.25;14.43;;;;;;;-145.63;60.60;39094.66;5026213;28;20041;-67
2023/08/27 00:06:41;;;;;;;18.63;15.63;;;;;;;-145.63;60.74;39075.09;5026429;28;20034;-68
2023/08/27 00:09:06;;;;;;;17.77;13.98;;;;;;;-145.63;60.73;39063.34;5026421;28;20033;-69
2023/08/27 00:11:32;;;;;;;18.02;14.98;;;;;;;-145.63;60.65;39080.97;5025963;28;20022;-69
2023/08/27 00:13:58;;;;;;;17.67;13.27;;;;;;;-145.63;60.70;39071.19;5026060;28;20035;-69
2023/08/27 00:16:24;;;;;;;16.67;13.82;;;;;;;-145.63;60.56;39098.56;5026111;28;20417;-68
2023/08/27 00:18:49;;;;;;;15.50;13.05;;;;;;;-145.63;60.53;39114.22;5026121;28;20317;-68
2023/08/27 00:21:15;;;;;;;16.65;13.02;;;;;;;-145.63;60.48;39053.59;5024809;28;20205;-66
2023/08/27 00:23:41;;;;;;;17.33;14.15;;;;;;;-145.63;60.54;39108.34;5026029;28;20184;-68
2023/08/27 00:26:07;;;;;;;14.43;12.50;;;;;;;-145.63;60.50;39071.19;5025656;28;20021;-67
2023/08/27 00:28:33;;;;;;;13.95;12.20;;;;;;;-145.63;60.33;39092.69;5020122;28;20033;-68
2023/08/27 00:31:05;;;;;;;15.20;12.75;;;;;;;-145.63;59.96;39057.50;5023237;28;20026;-68
2023/08/27 00:33:31;;;;;;;14.85;13.10;;;;;;;-145.63;60.11;39106.38;5023856;28;20025;-68
2023/08/27 00:35:57;;;;;;;14.32;12.82;;;;;;;-145.63;60.09;39080.97;5028115;28;20030;-69
2023/08/27 00:38:22;;;;;;;15.65;12.45;;;;;;;-145.63;60.46;39071.19;5025636;28;20053;-66
2023/08/27 00:40:48;;;;;;;14.45;11.98;;;;;;;-145.63;60.36;39059.44;5025801;28;20022;-68
2023/08/27 00:43:14;;;;;;;15.30;12.20;;;;;;;-145.63;60.46;39071.19;5025577;28;20085;-67
2023/08/27 00:45:40;;;;;;;15.02;12.10;;;;;;;-145.63;60.34;39063.34;5024491;28;20029;-69
2023/08/27 00:48:06;;;;;;;13.18;10.85;;;;;;;-145.63;60.37;39053.59;5025410;28;20325;-68
2023/08/27 00:50:32;;;;;;;11.60;10.23;;;;;;;-145.63;60.36;39063.34;5025174;28;20054;-68
2023/08/27 00:52:58;;;;;;;12.80;10.68;;;;;;;-145.63;60.35;39092.69;5025594;28;20223;-68
2023/08/27 00:55:24;;;;;;;12.50;11.18;;;;;;;-145.63;60.30;39082.91;5025293;28;20057;-68
2023/08/27 00:57:50;;;;;;;13.73;10.80;;;;;;;-145.63;60.28;39039.88;5025372;28;20030;-68
2023/08/27 01:00:18;;;;;;;11.32;10.20;;;;;;;-145.63;60.57;39106.38;5024935;28;20097;-70
2023/08/27 01:02:44;;;;;;;11.50;10.25;;;;;;;-145.63;60.32;39088.78;5025301;28;20202;-68
2023/08/27 01:05:13;;;;;;;13.65;11.38;;;;;;;-145.63;60.15;39065.31;5025194;28;20026;-68
2023/08/27 01:07:55;;;;;;;14.50;10.85;;;;;;;-145.63;60.48;38204.94;5024017;28;20321;-69
2023/08/27 01:10:49;;;;;;;14.35;10.65;;;;;;;-145.63;59.95;39079.00;5024596;28;20375;-67
2023/08/27 01:13:25;;;;;;;13.23;11.07;;;;;;;-145.63;60.04;39063.34;5024913;28;20030;-67
2023/08/27 01:16:01;;;;;;;12.25;10.82;;;;;;;-145.63;60.49;39137.69;5024960;28;20026;-66
2023/08/27 01:18:28;;;;;;;12.77;11.20;;;;;;;-145.63;60.55;39094.66;5024857;28;20022;-68
2023/08/27 01:20:54;;;;;;;15.55;11.93;;;;;;;-145.63;60.26;39086.81;5025205;28;20310;-67
2023/08/27 01:23:19;;;;;;;13.20;10.95;;;;;;;-145.63;60.78;39131.81;5024953;28;20078;-66
2023/08/27 01:25:50;;;;;;;11.90;10.63;;;;;;;-145.63;61.08;39098.56;5024780;28;20037;-66
2023/08/27 01:28:37;;;;;;;12.90;11.30;;;;;;;-145.63;61.19;39102.47;5024555;28;20085;-69
2023/08/27 01:31:09;;;;;;;12.48;10.75;;;;;;;-145.63;60.86;39129.84;5024666;28;20025;-68
2023/08/27 01:33:37;;;;;;;12.20;10.95;;;;;;;-145.63;60.80;39088.78;5032280;28;20060;-69
2023/08/27 01:36:04;;;;;;;12.70;10.55;;;;;;;-145.63;60.72;39047.72;5024553;28;20025;-67
2023/08/27 01:38:30;;;;;;;11.88;10.55;;;;;;;-145.63;60.65;39086.81;5024259;28;20097;-68
2023/08/27 01:40:55;;;;;;;12.55;11.02;;;;;;;-145.63;60.53;39090.75;5028150;28;20079;-67
2023/08/27 01:43:21;;;;;;;11.73;10.48;;;;;;;-145.63;60.43;39084.88;5033559;28;20029;-67
2023/08/27 01:45:47;;;;;;;14.85;11.65;;;;;;;-145.63;60.46;39094.66;5019772;28;20033;-66
2023/08/27 01:48:13;;;;;;;12.77;11.50;;;;;;;-145.63;60.19;39086.81;5036790;28;20037;-67
2023/08/27 01:50:38;;;;;;;12.20;10.63;;;;;;;-145.63;60.40;39112.25;5023749;28;20481;-68
2023/08/27 01:53:04;;;;;;;13.52;11.98;;;;;;;-145.63;60.50;39084.88;5031053;28;20034;-68
2023/08/27 01:55:30;;;;;;;15.15;11.48;;;;;;;-145.63;60.57;39100.50;5024208;28;20057;-68
2023/08/27 01:57:55;;;;;;;14.75;12.75;;;;;;;-145.63;60.65;39098.56;5024399;28;20302;-68
2023/08/27 02:00:22;;;;;;;13.15;11.70;;;;;;;-145.63;60.50;39098.56;5024088;28;20057;-67
2023/08/27 02:02:47;;;;;;;14.52;12.32;;;;;;;-145.63;60.44;39120.06;5024199;28;20022;-68
2023/08/27 02:05:13;;;;;;;12.55;11.35;;;;;;;-145.63;60.15;39123.97;5022883;28;20029;-68
2023/08/27 02:07:40;;;;;;;14.88;12.80;;;;;;;-145.63;60.13;39102.47;5023969;28;20025;-68
2023/08/27 02:10:07;;;;;;;12.13;10.85;;;;;;;-145.63;60.44;39061.41;5023973;28;20080;-69
2023/08/27 02:12:35;;;;;;;14.68;12.00;;;;;;;-145.63;60.34;39110.28;5023878;28;20045;-68
2023/08/27 02:15:08;;;;;;;15.65;11.75;;;;;;;-145.63;60.17;39123.97;5024174;28;20061;-67
2023/08/27 02:17:34;;;;;;;;;;;;;;;-145.63;59.93;39102.47;5024264;28;20045;-66
2023/08/27 02:19:59;;;;;;;14.15;11.05;;;;;;;-145.63;60.00;39118.13;5023868;28;19912;-68
2023/08/27 02:22:25;;;;;;;14.02;11.55;;;;;;;-145.63;59.86;39131.81;5023753;28;20049;-68
2023/08/27 02:24:52;;;;;;;11.82;10.63;;;;;;;-145.63;59.87;39098.56;5023375;28;20084;-67
2023/08/27 02:27:18;;;;;;;13.40;11.68;;;;;;;-145.63;59.75;39102.47;5023740;28;20084;-68
2023/08/27 02:29:43;;;;;;;12.52;10.48;;;;;;;-145.63;60.11;39110.28;5023791;28;20021;-68
2023/08/27 02:32:09;;;;;;;11.23;10.02;;;;;;;-145.63;59.94;39108.34;5023609;28;20037;-68
2023/08/27 02:34:35;;;;;;;11.30;9.80;;;;;;;-145.63;60.00;39141.59;5029589;28;20025;-67
2023/08/27 02:37:00;;;;;;;10.80;9.55;;;;;;;-145.63;59.61;39096.59;5023390;28;20097;-68
2023/08/27 02:39:26;;;;;;;13.80;10.73;;;;;;;-145.63;59.51;39088.78;5023375;28;20034;-68
2023/08/27 02:41:52;;;;;;;12.15;10.77;;;;;;;-145.63;59.43;39120.06;5023424;28;20053;-68
2023/08/27 02:44:17;;;;;;;12.35;11.05;;;;;;;-145.63;59.24;39071.19;5023285;28;20070;-68
2023/08/27 02:46:43;;;;;;;12.60;11.25;;;;;;;-145.63;59.24;39104.44;5023248;28;20349;-68
2023/08/27 02:49:09;;;;;;;12.57;10.13;;;;;;;-145.63;59.03;39090.75;5023599;28;20044;-68
2023/08/27 02:51:34;;;;;;;11.57;10.35;;;;;;;-145.63;58.98;39098.56;5023187;28;20028;-69
2023/08/27 02:54:00;;;;;;;11.70;10.50;;;;;;;-145.63;59.35;39094.66;5014652;28;20029;-68
2023/08/27 02:56:26;;;;;;;10.32;9.32;;;;;;;-145.63;59.26;39063.34;5023206;28;20126;-68
2023/08/27 02:58:51;;;;;;;11.32;10.02;;;;;;;-145.63;59.34;39061.41;5023098;28;20026;-69
2023/08/27 03:01:20;;;;;;;11.10;9.30;;;;;;;-145.63;59.11;39098.56;5023093;28;20029;-67
2023/08/27 03:03:49;;;;;;;13.18;10.20;;;;;;;-145.63;58.87;39086.81;5023255;28;20214;-68
2023/08/27 03:06:16;;;;;;;10.90;9.80;;;;;;;-145.63;58.90;39135.72;5023229;28;20026;-68
2023/08/27 03:08:41;;;;;;;10.88;9.77;;;;;;;-145.63;58.86;39088.78;5023516;28;20044;-68
2023/08/27 03:11:07;;;;;;;12.43;10.60;;;;;;;-145.63;58.87;39141.59;5022942;28;20034;-67
2023/08/27 03:13:33;;;;;;;12.25;10.95;;;;;;;-145.63;58.59;39125.94;5022057;28;20026;-68
2023/08/27 03:15:58;;;;;;;12.18;9.85;;;;;;;-145.63;58.78;39102.47;5023328;28;20102;-68
2023/08/27 03:18:24;;;;;;;12.48;9.90;;;;;;;-145.63;58.82;39118.13;5023129;28;20034;-68
2023/08/27 03:20:51;;;;;;;12.10;10.75;;;;;;;-145.63;58.70;39098.56;5023229;28;20080;-67
2023/08/27 03:23:18;;;;;;;11.77;10.13;;;;;;;-145.63;59.02;39063.34;5022908;28;20050;-68
2023/08/27 03:25:43;;;;;;;12.50;9.82;;;;;;;-145.63;58.93;39075.09;5023076;28;20221;-68
2023/08/27 03:28:09;;;;;;;12.05;9.93;;;;;;;-145.63;58.76;39137.69;5022977;28;20022;-68
2023/08/27 03:30:35;;;;;;;10.75;9.63;;;;;;;-145.63;58.61;39077.06;5030876;28;20029;-68
2023/08/27 03:33:01;;;;;;;12.93;9.93;;;;;;;-145.63;58.47;39108.34;5031257;28;20033;-67
2023/08/27 03:35:26;;;;;;;13.30;10.27;;;;;;;-145.63;58.49;39116.16;5040438;28;20100;-68
2023/08/27 03:37:52;;;;;;;14.70;11.85;;;;;;;-145.63;58.59;39125.94;5026908;28;20045;-68
2023/08/27 03:40:20;;;;;;;13.05;10.30;;;;;;;-145.63;58.77;39080.97;5026848;28;20049;-69
2023/08/27 03:42:46;;;;;;;11.00;9.88;;;;;;;-145.63;58.61;39114.22;5026694;28;20025;-68
2023/08/27 03:45:11;;;;;;;11.23;9.88;;;;;;;-145.63;58.77;39094.66;5026499;28;20187;-68
2023/08/27 03:47:37;;;;;;;10.23;9.23;;;;;;;-145.63;58.63;39104.44;5026693;28;20056;-69
2023/08/27 03:50:04;;;;;;;10.85;9.75;;;;;;;-145.63;58.70;39120.06;5027328;28;20182;-67
2023/08/27 03:52:30;;;;;;;13.88;10.30;;;;;;;-145.63;58.70;39094.66;5025361;28;20021;-68
2023/08/27 03:54:56;;;;;;;10.95;9.80;;;;;;;-145.63;58.49;39108.34;5026732;28;20032;-67
2023/08/27 03:57:22;;;;;;;12.38;10.07;;;;;;;-145.63;58.32;39125.94;5026242;28;20026;-68
2023/08/27 03:59:47;;;;;;;13.88;10.23;;;;;;;-145.63;58.20;39098.56;5026613;28;20034;-68
2023/08/27 04:02:14;;;;;;;12.18;10.70;;;;;;;-145.63;58.43;39096.59;5026330;28;20318;-68
2023/08/27 04:04:39;;;;;;;11.15;10.05;;;;;;;-145.63;58.27;39114.22;5026456;28;20030;-67
2023/08/27 04:07:05;;;;;;;11.65;10.45;;;;;;;-145.63;58.36;39098.56;5026442;28;20044;-66
2023/08/27 04:09:31;;;;;;;12.27;10.15;;;;;;;-145.63;57.94;39102.47;5028083;28;20133;-67
2023/08/27 04:11:56;;;;;;;10.70;9.57;;;;;;;-145.63;58.00;39094.66;5026193;28;20049;-69
2023/08/27 04:14:22;;;;;;;13.82;9.85;;;;;;;-145.63;58.38;39104.44;5025955;28;20345;-67
2023/08/27 04:16:48;;;;;;;11.15;10.02;;;;;;;-145.63;58.02;39104.44;5026066;28;20022;-67
2023/08/27 04:19:14;;;;;;;11.07;9.90;;;;;;;-145.63;58.12;39147.44;5026104;28;20026;-67
2023/08/27 04:21:40;;;;;;;10.80;9.70;;;;;;;-145.63;58.05;39114.22;5012019;28;20022;-67
2023/08/27 04:24:06;;;;;;;13.18;10.68;;;;;;;-145.63;57.93;39084.88;5024671;28;20038;-67
2023/08/27 04:26:31;;;;;;;11.50;9.40;;;;;;;-145.63;58.20;39086.81;5019356;28;20030;-67
2023/08/27 04:28:57;;;;;;;12.48;9.48;;;;;;;-145.63;58.26;39067.28;5025963;28;20021;-67
2023/08/27 04:31:23;;;;;;;11.27;9.90;;;;;;;-145.63;58.48;39067.28;5019328;28;20019;-69
2023/08/27 04:33:48;;;;;;;10.07;9.07;;;;;;;-145.63;58.30;39104.44;5033047;28;20041;-69
2023/08/27 04:36:14;;;;;;;11.20;9.98;;;;;;;-145.63;58.48;39153.31;5034999;28;20034;-69
2023/08/27 04:38:39;;;;;;;10.43;9.35;;;;;;;-145.63;58.53;39106.38;5030106;28;20040;-69
2023/08/27 04:41:05;;;;;;;10.38;8.85;;;;;;;-145.63;58.07;39112.25;5025859;28;20041;-68
2023/08/27 04:43:31;;;;;;;10.70;9.60;;;;;;;-145.63;58.34;39114.22;5024884;28;20033;-68
2023/08/27 04:45:56;;;;;;;11.45;10.25;;;;;;;-145.63;59.06;39116.16;5025500;28;20298;-69
2023/08/27 04:48:22;;;;;;;11.98;10.65;;;;;;;-145.63;59.09;39131.81;5025646;28;20032;-68
2023/08/27 04:50:48;;;;;;;10.77;9.70;;;;;;;-145.63;58.85;39131.81;5033389;28;20305;-68
2023/08/27 04:53:14;;;;;;;11.85;10.63;;;;;;;-145.63;58.89;39118.13;5030136;28;20017;-68
2023/08/27 04:55:40;;;;;;;11.43;10.25;;;;;;;-145.63;58.96;39108.34;5025710;28;20021;-68
2023/08/27 04:58:07;;;;;;;11.75;10.57;;;;;;;-145.63;58.84;39161.13;5025339;28;20050;-67
2023/08/27 05:00:33;;;;;;;11.18;10.07;;;;;;;-145.63;58.31;39116.16;5025226;28;20037;-67
2023/08/27 05:02:59;;;;;;;11.48;9.23;;;;;;;-145.63;58.31;39088.78;5025327;28;20029;-67
2023/08/27 05:05:24;;;;;;;10.35;9.30;;;;;;;-145.63;58.25;39079.00;5025122;28;20325;-67
2023/08/27 05:07:50;;;;;;;11.52;9.68;;;;;;;-145.63;57.93;39090.75;5025098;28;20033;-67
2023/08/27 05:10:16;;;;;;;12.00;10.68;;;;;;;-145.63;58.02;39114.22;5025065;28;20026;-67
2023/08/27 05:12:42;;;;;;;11.05;9.75;;;;;;;-145.63;58.52;39129.84;5023917;28;20053;-70
2023/08/27 05:15:07;;;;;;;9.55;8.63;;;;;;;-145.63;57.93;39098.56;5025367;28;20214;-68
2023/08/27 05:17:33;;;;;;;9.30;8.20;;;;;;;-145.63;57.82;39143.53;5024875;28;20376;-67
2023/08/27 05:19:59;;;;;;;8.70;7.80;;;;;;;-145.63;57.41;39090.75;5024874;28;20040;-67
2023/08/27 05:22:25;;;;;;;9.95;8.82;;;;;;;-145.63;57.44;39069.22;5031964;28;20041;-68
2023/08/27 05:24:50;;;;;;;9.93;8.65;;;;;;;-145.63;57.32;39082.91;5027780;28;20036;-68
2023/08/27 05:27:16;;;;;;;10.32;9.23;;;;;;;-145.63;57.00;39053.59;5024698;28;20049;-68
2023/08/27 05:29:42;;;;;;;9.68;8.68;;;;;;;-145.63;57.01;39137.69;5024555;28;20036;-70
2023/08/27 05:32:07;;;;;;;9.57;8.68;;;;;;;-145.63;57.50;39145.50;5024395;28;20322;-70
2023/08/27 05:34:33;;;;;;;8.82;7.95;;;;;;;-145.63;57.16;39084.88;5029664;28;20340;-70
2023/08/27 05:36:59;;;;;;;11.77;9.02;;;;;;;-145.63;56.59;39125.94;5031101;28;20352;-71
2023/08/27 05:39:24;;;;;;;10.40;9.38;;;;;;;-145.63;56.81;39125.94;5024710;28;20072;-67
2023/08/27 05:41:50;;;;;;;9.88;8.85;;;;;;;-145.63;57.41;39125.94;5024434;28;20221;-67
2023/08/27 05:44:16;;;;;;;10.77;9.15;;;;;;;-145.63;57.31;39108.34;5033715;28;20022;-69
2023/08/27 05:46:42;;;;;;;9.55;8.65;;;;;;;-145.63;57.21;39098.56;5024579;28;20022;-70
2023/08/27 05:49:08;;;;;;;11.55;9.38;;;;;;;-145.63;57.18;39108.34;5025071;28;20202;-68
2023/08/27 05:51:33;;;;;;;9.05;7.93;;;;;;;-145.63;56.93;39122.03;5022856;28;20022;-67
2023/08/27 05:53:59;;;;;;;12.65;11.35;;;;;;;-145.63;56.47;39120.06;5023415;28;20052;-69
2023/08/27 05:56:27;;;;;;;14.63;10.73;;;;;;;-145.63;56.22;39149.41;5026575;28;20029;-69
2023/08/27 05:58:53;;;;;;;10.38;8.75;;;;;;;-145.63;56.29;39077.06;5032687;28;20025;-68
2023/08/27 06:01:19;;;;;;;10.02;8.93;;;;;;;-145.63;56.33;39098.56;5025477;28;20021;-66
2023/08/27 06:03:45;;;;;;;11.65;9.27;;;;;;;-145.63;56.01;39067.28;5025954;28;20348;-68
2023/08/27 06:06:10;;;;;;;14.38;12.00;;;;;;;-145.63;55.92;39086.81;5027375;28;20103;-68
2023/08/27 06:08:36;;;;;;;10.38;9.23;;;;;;;-145.63;56.11;39053.59;5023813;28;20265;-67
2023/08/27 06:11:04;;;;;;;10.35;9.10;;;;;;;-145.63;55.88;39051.63;5024071;28;20057;-68
2023/08/27 06:13:30;;;;;;;10.02;8.88;;;;;;;-145.63;55.85;39049.66;5022641;28;20026;-67
2023/08/27 06:15:56;;;;;;;9.85;8.55;;;;;;;-145.63;55.42;39000.78;5024072;28;20072;-69
2023/08/27 06:18:22;;;;;;;10.02;8.88;;;;;;;-145.63;55.84;39032.06;5023294;28;20034;-67
2023/08/27 06:20:48;;;;;;;10.95;8.77;;;;;;;-145.63;55.26;39047.72;5025294;28;20029;-67
2023/08/27 06:23:14;;;;;;;8.35;7.55;;;;;;;-145.63;55.17;39024.25;5023225;28;20104;-67
2023/08/27 06:25:40;;;;;;;8.90;8.00;;;;;;;-145.63;54.88;39039.88;5017328;28;20049;-68
2023/08/27 06:28:07;;;;;;;19.75;17.85;;;;;;;-145.63;54.96;39043.81;5018304;28;20093;-67
2023/08/27 06:30:33;;;;;;;12.25;8.80;;;;;;;-145.63;54.95;39010.56;5019440;28;20021;-67
2023/08/27 06:32:59;;;;;;;9.77;8.18;;;;;;;-145.63;54.76;39028.16;5027060;28;20025;-67
2023/08/27 06:35:25;;;;;;;10.07;8.93;;;;;;;-145.63;54.92;39018.38;5027433;28;20017;-69
2023/08/27 06:37:51;;;;;;;11.98;8.05;;;;;;;-145.63;54.86;38996.88;5023594;28;20032;-68
2023/08/27 06:40:17;;;;;;;9.68;8.75;;;;;;;-145.63;54.06;38975.34;5023238;28;20033;-69
2023/08/27 06:42:42;;;;;;;9.93;9.02;;;;;;;-145.63;54.06;38942.13;5023532;28;20030;-68
2023/08/27 06:45:09;;;;;;;10.75;8.98;;;;;;;-145.63;53.57;39028.16;5027220;28;20040;-68
2023/08/27 06:47:36;;;;;;;15.35;13.73;;;;;;;-145.63;54.36;39008.59;5031965;28;20234;-67
2023/08/27 06:50:04;;;;;;;9.32;8.32;;;;;;;-145.63;53.68;38987.09;5024008;28;20022;-66
2023/08/27 06:52:33;;;;;;;10.32;9.30;;;;;;;-145.63;53.86;38985.13;5024340;28;20336;-66
2023/08/27 06:54:59;;;;;;;10.23;8.63;;;;;;;-145.63;53.73;39008.59;5022248;28;20030;-65
2023/08/27 06:57:25;;;;;;;8.43;7.53;;;;;;;-145.63;53.78;38957.75;5030380;28;20053;-66
2023/08/27 06:59:50;;;;;;;8.98;7.88;;;;;;;-145.63;53.15;38930.38;5021857;28;20310;-66
2023/08/27 07:02:16;;;;;;;9.23;7.82;;;;;;;-145.63;53.36;38903.00;5023193;28;20046;-66
2023/08/27 07:04:43;;;;;;;7.63;6.82;;;;;;;-145.63;53.65;38922.56;5023125;28;20318;-66
2023/08/27 07:07:08;;;;;;;10.57;7.82;;;;;;;-145.63;53.29;38906.91;5026210;28;20049;-66
2023/08/27 07:09:34;;;;;;;11.77;8.40;;;;;;;-145.63;53.15;38947.97;5027059;28;20225;-66
2023/08/27 07:12:00;;;;;;;10.27;8.45;;;;;;;-145.63;52.60;38983.19;5031699;28;20036;-66
2023/08/27 07:14:25;;;;;;;8.48;7.60;;;;;;;-145.63;53.04;38946.03;5030689;28;20029;-66
2023/08/27 07:16:51;;;;;;;9.45;8.40;;;;;;;-145.63;52.48;38965.56;5027116;28;20226;-67
2023/08/27 07:19:16;;;;;;;9.75;8.32;;;;;;;-145.63;52.35;38924.50;5027197;28;20041;-66
2023/08/27 07:21:42;;;;;;;9.60;7.60;;;;;;;-145.63;52.08;38879.53;5031589;28;20026;-68
2023/08/27 07:24:08;;;;;;;9.02;8.07;;;;;;;-145.63;52.21;38887.34;5031039;28;20041;-67
2023/08/27 07:26:33;;;;;;;10.23;8.05;;;;;;;-145.63;51.65;39020.34;5034372;28;20048;-68
2023/08/27 07:29:00;;;;;;;11.90;8.57;;;;;;;-145.63;52.25;38916.69;5040243;28;20076;-67
2023/08/27 07:31:26;;;;;;;10.95;7.47;;;;;;;-145.63;51.46;38875.63;5026421;28;20132;-68
2023/08/27 07:33:52;;;;;;;8.73;7.57;;;;;;;-145.63;51.35;38899.09;5031745;28;20025;-69
2023/08/27 07:36:18;;;;;;;10.90;8.50;;;;;;;-145.63;51.94;38863.88;5026268;28;20089;-68
2023/08/27 07:38:43;;;;;;;9.32;7.57;;;;;;;-145.63;51.68;38877.56;5026683;28;20033;-69
2023/08/27 07:41:11;;;;;;;12.63;7.28;;;;;;;-145.63;50.89;38848.25;5027159;28;20029;-68
2023/08/27 07:43:37;;;;;;;8.90;8.00;;;;;;;-145.63;51.63;38859.97;5027522;28;20038;-69
2023/08/27 07:46:03;;;;;;;11.27;7.65;;;;;;;-145.63;50.93;38818.91;5032909;28;20092;-68
2023/08/27 07:48:29;;;;;;;8.05;7.15;;;;;;;-145.63;50.40;38801.31;5037392;28;20314;-68
2023/08/27 07:50:55;;;;;;;10.48;7.68;;;;;;;-145.63;50.30;38797.41;5026201;28;20298;-68
2023/08/27 07:53:20;;;;;;;8.95;7.32;;;;;;;-145.63;50.18;38785.66;5027484;28;20034;-69
2023/08/27 07:55:46;;;;;;;7.90;7.10;;;;;;;-145.63;49.67;38773.94;5039303;28;20048;-68
2023/08/27 07:58:12;;;;;;;8.02;6.72;;;;;;;-145.63;48.57;38787.63;5029042;28;20044;-69
2023/08/27 08:00:38;;;;;;;9.85;5.88;;;;;;;-145.63;48.75;38793.50;5030874;28;20076;-68
2023/08/27 08:03:03;;;;;;;8.30;5.32;;;;;;;-145.63;47.36;38754.38;5028616;28;20076;-68
2023/08/27 08:05:29;;;;;;;5.57;5.07;;;;;;;-145.63;49.02;38771.97;5032608;28;20313;-68
2023/08/27 08:07:55;;;;;;;5.95;5.35;;;;;;;-145.63;48.72;38756.34;5030269;28;20343;-67
2023/08/27 08:10:21;;;;;;;6.68;6.07;;;;;;;-145.63;47.12;38777.84;5028816;28;20334;-68
2023/08/27 08:12:47;;;;;;;6.00;5.40;;;;;;;-145.63;47.57;38758.28;5031167;28;20298;-68
2023/08/27 08:15:14;;;;;;;6.82;6.03;;;;;;;-145.63;47.38;38791.53;5032964;28;20045;-68
2023/08/27 08:17:40;;;;;;;8.45;5.97;;;;;;;-145.63;47.64;38781.75;5025092;28;20025;-68
2023/08/27 08:20:06;;;;;;;6.88;6.15;;;;;;;-145.63;46.63;38773.94;5026815;28;20049;-68
2023/08/27 08:22:32;;;;;;;5.82;5.25;;;;;;;-145.63;46.92;38801.31;5030379;28;20041;-69
2023/08/27 08:24:57;;;;;;;13.50;10.88;;;;;;;-145.63;47.54;38684.00;5028587;28;20034;-69
2023/08/27 08:27:24;;;;;;;12.10;9.90;;;;;;;-145.63;46.91;38764.16;5032546;28;20044;-69
2023/08/27 08:29:50;;;;;;;8.55;6.10;;;;;;;-145.63;46.64;38754.38;5030787;28;20025;-69
2023/08/27 08:32:15;;;;;;;6.60;5.35;;;;;;;-145.63;46.31;38723.09;5024778;28;20044;-71
2023/08/27 08:34:41;;;;;;;9.15;7.50;;;;;;;-145.63;46.38;38697.69;5031512;28;20021;-70
2023/08/27 08:37:07;;;;;;;8.05;6.25;;;;;;;-145.63;45.53;38725.06;5030258;28;20033;-69
2023/08/27 08:39:33;;;;;;;10.07;5.88;;;;;;;-145.63;45.89;38682.03;5030895;28;20026;-69
2023/08/27 08:42:26;;;;;;;7.43;5.85;;;;;;;-145.63;45.37;38670.28;5024989;28;20249;-70
2023/08/27 08:45:21;;;;;;;10.48;6.20;;;;;;;-145.63;45.27;38678.13;5022981;28;20238;-69
2023/08/27 08:47:52;;;;;;;7.53;5.90;;;;;;;-145.63;44.70;38664.44;5027254;28;20053;-67
2023/08/27 08:50:18;;;;;;;6.50;5.72;;;;;;;-145.63;44.94;38719.19;5024328;28;20021;-68
2023/08/27 08:52:45;;;;;;;8.55;7.40;;;;;;;-145.63;45.03;38341.81;5025368;28;20024;-68
2023/08/27 08:55:15;;;;;;;7.97;5.28;;;;;;;-145.63;45.74;38687.91;5025400;28;20097;-68
2023/08/27 08:57:47;;;;;;;7.80;5.43;;;;;;;-145.63;46.76;38652.69;5024199;28;20026;-68
2023/08/27 09:00:14;;;;;;;8.63;5.95;;;;;;;-145.63;45.73;38758.28;5025182;28;20099;-69
2023/08/27 09:02:41;;;;;;;7.65;6.15;;;;;;;-145.63;45.79;38711.38;5026804;28;20021;-69
2023/08/27 09:05:12;;;;;;;7.57;5.05;;;;;;;-145.63;45.43;38637.06;5031865;28;20314;-68
2023/08/27 09:07:39;;;;;;;8.65;5.40;;;;;;;-145.63;44.23;38535.38;5022864;28;20514;-68
2023/08/27 09:10:04;;;;;;;4.78;4.25;;;;;;;-145.63;43.16;38590.13;5023850;28;20053;-68
2023/08/27 09:12:32;;;;;;;8.65;4.60;;;;;;;-145.63;41.80;38443.47;5023995;28;20030;-69
2023/08/27 09:14:58;;;;;;;5.18;4.28;;;;;;;-145.63;41.82;38445.44;5023456;28;20042;-68
2023/08/27 09:17:24;;;;;;;6.65;3.97;;;;;;;-145.63;42.26;38537.34;5024283;28;20067;-69
2023/08/27 09:19:51;;;;;;;6.97;4.63;;;;;;;-145.63;42.32;38437.59;5029131;28;20297;-69
2023/08/27 09:22:18;;;;;;;5.40;4.43;;;;;;;-145.63;40.98;38453.25;5026952;28;20037;-69
2023/08/27 09:24:46;;;;;;;6.18;3.92;;;;;;;-145.63;40.72;38468.91;5029350;28;20044;-69
2023/08/27 09:27:12;;;;;;;7.35;4.50;;;;;;;-145.63;42.35;38455.22;5023245;28;20022;-69
2023/08/27 09:29:40;;;;;;;8.27;3.58;;;;;;;-145.63;39.80;38418.06;5028264;28;20336;-69
2023/08/27 09:32:06;;;;;;;5.65;3.95;;;;;;;-145.63;39.96;38343.75;5033500;28;20245;-69
2023/08/27 09:34:39;;;;;;;3.83;3.17;;;;;;;-145.63;39.05;38394.59;5027427;28;20033;-69
2023/08/27 09:37:06;;;;;;;7.15;4.38;;;;;;;-145.63;38.12;38410.22;5027945;28;20029;-69
2023/08/27 09:39:31;;;;;;;5.75;3.92;;;;;;;-145.63;38.84;38463.03;5027952;28;20030;-70
2023/08/27 09:41:58;;;;;;;6.47;4.82;;;;;;;-145.63;38.61;38380.91;5031267;28;20033;-69
2023/08/27 09:44:27;;;;;;;4.97;3.45;;;;;;;-145.63;38.88;38371.13;5023817;28;20307;-68
2023/08/27 09:46:53;;;;;;;3.80;3.38;;;;;;;-145.63;39.20;38355.50;5025076;28;20038;-69
2023/08/27 09:49:23;;;;;;;7.70;6.90;;;;;;;-145.63;38.29;38423.91;5027284;28;20036;-69
2023/08/27 09:51:55;;;;;;;6.95;3.78;;;;;;;-145.63;39.46;38392.63;5022687;28;20030;-69
2023/08/27 09:54:21;;;;;;;6.47;3.40;;;;;;;-145.63;39.79;38418.06;5024293;28;20047;-69
2023/08/27 09:56:49;;;;;;;5.75;4.75;;;;;;;-145.63;40.15;38007.47;5024506;28;20042;-68
2023/08/27 09:59:18;;;;;;;6.13;3.97;;;;;;;-145.63;38.97;38472.81;5030036;28;20102;-69
2023/08/27 10:01:51;;;;;;;5.40;4.05;;;;;;;-145.63;39.36;38480.63;5024474;28;20061;-69
2023/08/27 10:04:18;;;;;;;11.63;9.45;;;;;;;-145.63;39.85;38470.84;5023739;28;20112;-69
2023/08/27 10:06:44;;;;;;;9.00;7.05;;;;;;;-145.63;40.30;38515.81;5028332;28;20030;-67
2023/08/27 10:09:10;;;;;;;7.28;4.28;;;;;;;-145.63;40.33;38464.97;5030595;28;20373;-68
2023/08/27 10:11:36;;;;;;;8.38;4.78;;;;;;;-145.63;39.83;38472.81;5024881;28;20116;-69
2023/08/27 10:14:04;;;;;;;5.50;3.92;;;;;;;-145.63;39.03;38541.25;5030931;28;20379;-68
2023/08/27 10:16:30;;;;;;;4.78;4.35;;;;;;;-145.63;41.24;38504.09;5022282;28;20089;-68
2023/08/27 10:18:57;;;;;;;6.20;3.92;;;;;;;-145.63;40.82;38457.16;5023803;28;20042;-68
2023/08/27 10:21:24;;;;;;;6.03;3.97;;;;;;;-145.63;41.01;38494.31;5026624;28;20026;-67
2023/08/27 10:23:49;;;;;;;5.50;4.60;;;;;;;-145.63;41.05;38441.53;5025226;28;20108;-68
2023/08/27 10:26:16;;;;;;;6.28;4.50;;;;;;;-145.63;39.69;38472.81;5025789;28;20034;-69
2023/08/27 10:28:43;;;;;;;4.30;3.10;;;;;;;-145.63;38.10;38508.00;5023296;28;20030;-69
2023/08/27 10:31:09;;;;;;;15.65;11.63;;;;;;;-145.63;38.67;38500.19;5023225;28;20025;-68
2023/08/27 10:33:35;;;;;;;14.93;11.95;;;;;;;-145.63;39.27;38246.00;5025759;28;20214;-68
2023/08/27 10:36:05;;;;;;;5.97;3.97;;;;;;;-145.63;38.27;38464.97;5033248;28;20037;-68
2023/08/27 10:38:34;;;;;;;5.47;3.40;;;;;;;-145.63;38.97;38484.53;5021370;28;20022;-69
2023/08/27 10:41:03;;;;;;;5.95;3.90;;;;;;;-145.63;39.69;38457.16;5013000;28;20049;-68
2023/08/27 10:43:36;;;;;;;5.15;4.05;;;;;;;-145.63;38.52;38421.97;5018821;28;20318;-70
2023/08/27 10:46:20;;;;;;;7.95;5.05;;;;;;;-145.63;38.78;38425.88;5020679;28;20332;-68
2023/08/27 10:48:50;;;;;;;5.75;4.35;;;;;;;-145.63;37.55;38437.59;5026875;28;20353;-70
2023/08/27 10:51:18;;;;;;;4.68;3.78;;;;;;;-145.63;37.09;38443.47;5026213;28;20068;-67
2023/08/27 10:53:49;;;;;;;4.82;3.42;;;;;;;-145.63;37.67;38425.88;5023111;28;20021;-66
2023/08/27 10:56:37;;;;;;;7.05;4.13;;;;;;;-145.63;38.15;38418.06;5022868;28;20042;-68
2023/08/27 10:59:10;;;;;;;5.18;4.65;;;;;;;-145.63;38.48;38406.31;5038183;28;20057;-67
2023/08/27 11:01:56;;;;;;;5.47;4.28;;;;;;;-145.63;38.51;38441.53;5023034;28;20030;-68
2023/08/27 11:04:34;;;;;;;6.80;4.30;;;;;;;-145.63;37.91;38429.78;5025304;28;20026;-66
2023/08/27 11:07:11;;;;;;;7.30;3.70;;;;;;;-145.63;38.23;38482.59;5035074;28;20029;-68
2023/08/27 11:09:54;;;;;;;8.27;4.97;;;;;;;-145.63;39.01;38468.91;5023554;28;20124;-69